Time;durP1;ratioP1;P1;durP2;ratioP2;P2;SDS_P1;SDS_P2;PMS_P1;PMS_P2;Temp;Humidity;BMP_temperature;BMP_pressure;BME280_temperature;BME280_humidity;BME280_pressure;Samples;Min_cycle;Max_cycle;Signal;HPM_P1;HPM_P2
2022/11/12 00:01:05;;;;;;;29.80;17.83;;;6.50;99.90;;;;;;5002997;28;20218;-71
2022/11/12 00:03:32;;;;;;;29.07;18.47;;;6.50;99.90;;;;;;5021813;28;20619;-70
2022/11/12 00:05:58;;;;;;;35.40;18.40;;;6.50;99.90;;;;;;5001680;28;20317;-71
2022/11/12 00:08:25;;;;;;;30.40;18.00;;;6.30;99.90;;;;;;5019723;28;20309;-70
2022/11/12 00:10:52;;;;;;;32.93;20.13;;;6.40;99.90;;;;;;5022729;28;20225;-70
2022/11/12 00:13:19;;;;;;;32.40;20.07;;;6.20;99.90;;;;;;5026651;28;20261;-71
2022/11/12 00:15:46;;;;;;;43.67;24.50;;;6.20;99.90;;;;;;5009568;28;20222;-71
2022/11/12 00:18:13;;;;;;;41.43;22.27;;;6.20;99.90;;;;;;5025662;28;20237;-72
2022/11/12 00:20:40;;;;;;;42.47;22.40;;;6.20;99.90;;;;;;5019993;28;20194;-71
2022/11/12 00:23:07;;;;;;;33.03;19.80;;;6.20;99.90;;;;;;5019729;28;20203;-73
2022/11/12 00:25:34;;;;;;;37.07;19.87;;;6.20;99.90;;;;;;5005895;28;20575;-72
2022/11/12 00:28:08;;;;;;;30.70;19.27;;;6.10;99.90;;;;;;5025674;28;20194;-72
2022/11/12 00:30:39;;;;;;;31.17;18.10;;;6.10;99.90;;;;;;5010357;28;20319;-71
2022/11/12 00:33:06;;;;;;;28.83;18.53;;;6.10;99.90;;;;;;5009651;28;20213;-72
2022/11/12 00:35:33;;;;;;;32.07;19.03;;;6.10;99.90;;;;;;5018686;28;20318;-72
2022/11/12 00:38:01;;;;;;;41.53;19.60;;;6.10;99.90;;;;;;5009918;28;20194;-71
2022/11/12 00:40:28;;;;;;;30.27;18.27;;;6.10;99.90;;;;;;5019484;28;20206;-71
2022/11/12 00:42:55;;;;;;;26.20;17.60;;;6.10;99.90;;;;;;5003029;28;20209;-71
2022/11/12 00:45:22;;;;;;;33.87;20.20;;;6.10;99.90;;;;;;5020823;28;20325;-70
2022/11/12 00:47:48;;;;;;;31.63;18.57;;;6.00;99.90;;;;;;5004723;28;20240;-70
2022/11/12 00:50:15;;;;;;;31.40;17.20;;;6.00;99.90;;;;;;5019326;28;20735;-71
2022/11/12 00:52:42;;;;;;;31.63;19.53;;;6.00;99.90;;;;;;5022157;28;20298;-70
2022/11/12 00:55:09;;;;;;;28.37;17.50;;;5.90;99.90;;;;;;5019782;28;20228;-71
2022/11/12 00:57:36;;;;;;;32.23;17.83;;;5.90;99.90;;;;;;5023201;28;20313;-71
2022/11/12 01:00:05;;;;;;;34.23;19.70;;;5.90;99.90;;;;;;5019433;28;20238;-71
2022/11/12 01:02:33;;;;;;;34.97;20.57;;;5.90;99.90;;;;;;5023281;28;20206;-70
2022/11/12 01:05:10;;;;;;;32.20;20.23;;;5.90;99.90;;;;;;5022074;28;20218;-70
2022/11/12 01:07:37;;;;;;;37.67;19.87;;;5.90;99.90;;;;;;5024209;28;20264;-71
2022/11/12 01:10:04;;;;;;;32.27;19.80;;;5.90;99.90;;;;;;5026565;28;20222;-70
2022/11/12 01:12:32;;;;;;;34.23;19.63;;;5.90;99.90;;;;;;5025667;28;20211;-71
2022/11/12 01:14:59;;;;;;;32.63;19.03;;;5.90;99.90;;;;;;5009808;28;20283;-71
2022/11/12 01:17:26;;;;;;;32.23;19.23;;;5.80;99.90;;;;;;5025137;28;20692;-70
2022/11/12 01:19:52;;;;;;;35.53;20.60;;;5.80;99.90;;;;;;5027210;28;20293;-70
2022/11/12 01:22:19;;;;;;;37.03;19.77;;;5.80;99.90;;;;;;5009032;28;20226;-71
2022/11/12 01:24:46;;;;;;;31.33;19.93;;;5.80;99.90;;;;;;5025591;28;20205;-71
2022/11/12 01:27:13;;;;;;;36.73;19.93;;;5.80;99.90;;;;;;5026576;28;20204;-71
2022/11/12 01:29:40;;;;;;;34.90;19.73;;;5.70;99.90;;;;;;5024723;28;20683;-71
2022/11/12 01:32:07;;;;;;;33.70;20.10;;;5.70;99.90;;;;;;5009391;28;20673;-70
2022/11/12 01:34:34;;;;;;;32.17;19.50;;;5.70;99.90;;;;;;5024810;28;20658;-71
2022/11/12 01:37:00;;;;;;;37.70;21.87;;;5.70;99.90;;;;;;5024542;28;20251;-70
2022/11/12 01:39:27;;;;;;;42.63;22.70;;;5.70;99.90;;;;;;5023277;28;20211;-72
2022/11/12 01:41:54;;;;;;;38.57;22.67;;;5.70;99.90;;;;;;5015596;28;20245;-71
2022/11/12 01:44:25;;;;;;;35.13;20.57;;;5.70;99.90;;;;;;5023204;28;20216;-71
2022/11/12 01:47:18;;;;;;;34.67;21.23;;;5.60;99.90;;;;;;5029199;28;20206;-70
2022/11/12 01:50:00;;;;;;;36.60;20.33;;;5.60;99.90;;;;;;5025620;28;20206;-70
2022/11/12 01:52:45;;;;;;;36.27;20.80;;;5.60;99.90;;;;;;5022614;28;20241;-71
2022/11/12 01:55:24;;;;;;;38.20;22.07;;;5.60;99.90;;;;;;5022416;28;20530;-71
2022/11/12 01:58:07;;;;;;;36.23;21.00;;;5.60;99.90;;;;;;5022642;28;20253;-71
2022/11/12 02:00:35;;;;;;;38.20;22.87;;;5.60;99.90;;;;;;5022019;28;20288;-71
2022/11/12 02:03:07;;;;;;;33.73;21.00;;;5.60;99.90;;;;;;5025444;28;20238;-71
2022/11/12 02:05:35;;;;;;;37.87;22.47;;;5.60;99.90;;;;;;5025166;28;20210;-71
2022/11/12 02:08:04;;;;;;;37.57;20.93;;;5.60;99.90;;;;;;5022467;28;20195;-70
2022/11/12 02:10:31;;;;;;;37.87;21.67;;;5.50;99.90;;;;;;5031391;28;20237;-71
2022/11/12 02:15:43;;;;;;;36.80;21.40;;;5.50;99.90;;;;;;5025651;28;20264;-71
2022/11/12 02:18:10;;;;;;;36.27;20.97;;;5.50;99.90;;;;;;5024177;28;20293;-70
2022/11/12 02:20:37;;;;;;;33.23;19.50;;;5.50;99.90;;;;;;5007521;28;20199;-71
2022/11/12 02:23:06;;;;;;;31.20;19.00;;;5.40;99.90;;;;;;5021155;28;20233;-70
2022/11/12 02:25:36;;;;;;;37.60;22.50;;;5.40;99.90;;;;;;5036889;28;20237;-70
2022/11/12 02:28:07;;;;;;;32.63;21.40;;;5.40;99.90;;;;;;5020510;28;20206;-70
2022/11/12 02:30:42;;;;;;;34.20;20.90;;;5.40;99.90;;;;;;5031847;28;20202;-70
2022/11/12 02:33:09;;;;;;;27.90;19.03;;;5.40;99.90;;;;;;5001449;28;20296;-72
2022/11/12 02:35:36;;;;;;;30.20;18.80;;;5.30;99.90;;;;;;5003431;28;20233;-72
2022/11/12 02:38:03;;;;;;;27.13;18.13;;;5.30;99.90;;;;;;5019396;28;20225;-71
2022/11/12 02:40:30;;;;;;;31.27;19.57;;;5.30;99.90;;;;;;5025312;28;20202;-72
2022/11/12 02:42:57;;;;;;;27.80;18.77;;;5.30;99.90;;;;;;5027506;28;20249;-70
2022/11/12 02:45:25;;;;;;;27.90;18.83;;;5.20;99.90;;;;;;5020661;28;20839;-70
2022/11/12 02:47:52;;;;;;;28.73;17.77;;;5.10;99.90;;;;;;5023568;28;20233;-71
2022/11/12 02:50:19;;;;;;;28.43;18.10;;;5.10;99.90;;;;;;5020335;28;20212;-71
2022/11/12 02:52:46;;;;;;;26.47;17.07;;;5.10;99.90;;;;;;5026775;28;20220;-71
2022/11/12 02:55:13;;;;;;;28.77;18.77;;;5.10;99.90;;;;;;5022104;28;20267;-71
2022/11/12 02:57:40;;;;;;;31.00;18.50;;;5.00;99.90;;;;;;5005277;28;20258;-70
2022/11/12 03:00:12;;;;;;;28.27;18.40;;;;;;;;;;5016049;28;20202;-70
2022/11/12 03:02:41;;;;;;;30.07;18.50;;;5.00;99.90;;;;;;5018456;28;20333;-71
2022/11/12 03:05:10;;;;;;;28.97;18.43;;;4.90;99.90;;;;;;5023284;28;20197;-72
2022/11/12 03:07:37;;;;;;;38.87;22.67;;;4.90;99.90;;;;;;5021833;28;20268;-71
2022/11/12 03:10:04;;;;;;;36.77;21.97;;;4.90;99.90;;;;;;5024924;28;20297;-70
2022/11/12 03:12:31;;;;;;;35.60;21.60;;;4.90;99.90;;;;;;5020891;28;20664;-69
2022/11/12 03:14:58;;;;;;;36.23;21.63;;;4.90;99.90;;;;;;5005559;28;20663;-71
2022/11/12 03:17:25;;;;;;;39.00;23.50;;;4.90;99.90;;;;;;5025516;28;20356;-71
2022/11/12 03:19:52;;;;;;;44.40;24.40;;;4.90;99.90;;;;;;5003495;28;20620;-71
2022/11/12 03:22:18;;;;;;;44.60;23.90;;;4.90;99.90;;;;;;5024399;28;20340;-71
2022/11/12 03:24:45;;;;;;;40.33;23.43;;;4.90;99.90;;;;;;5019319;28;20650;-71
2022/11/12 03:27:12;;;;;;;38.53;23.53;;;4.90;99.90;;;;;;5022553;28;20701;-71
2022/11/12 03:29:38;;;;;;;39.10;23.73;;;4.90;99.90;;;;;;5023280;28;20204;-71
2022/11/12 03:32:05;;;;;;;34.10;20.63;;;4.90;99.90;;;;;;5024794;28;20207;-71
2022/11/12 03:34:32;;;;;;;37.37;22.03;;;4.90;99.90;;;;;;5021312;28;20210;-72
2022/11/12 03:36:58;;;;;;;38.07;22.63;;;4.90;99.90;;;;;;5021449;28;20324;-70
2022/11/12 03:39:25;;;;;;;35.17;22.53;;;4.90;99.90;;;;;;5022056;28;20213;-70
2022/11/12 03:41:52;;;;;;;39.70;23.13;;;4.90;99.90;;;;;;5022892;28;20578;-71
2022/11/12 03:44:19;;;;;;;46.70;24.37;;;4.90;99.90;;;;;;5022202;28;20206;-70
2022/11/12 03:46:45;;;;;;;35.30;21.57;;;4.90;99.90;;;;;;5019197;28;20499;-70
2022/11/12 03:49:12;;;;;;;40.93;22.50;;;4.90;99.90;;;;;;5025446;28;20675;-71
2022/11/12 03:51:39;;;;;;;42.33;22.47;;;4.90;99.90;;;;;;5020514;28;20308;-70
2022/11/12 03:54:06;;;;;;;40.40;24.00;;;4.90;99.90;;;;;;5020814;28;20302;-71
2022/11/12 03:56:32;;;;;;;46.73;25.57;;;4.80;99.90;;;;;;5022435;28;20328;-71
2022/11/12 03:58:59;;;;;;;47.10;27.07;;;4.80;99.90;;;;;;5020900;28;20288;-71
2022/11/12 04:01:26;;;;;;;38.23;23.20;;;4.80;99.90;;;;;;5022906;28;20297;-70
2022/11/12 04:03:53;;;;;;;39.47;24.17;;;4.80;99.90;;;;;;5019981;28;20248;-71
2022/11/12 04:09:05;;;;;;;38.87;23.97;;;4.80;99.90;;;;;;5019896;28;20674;-70
2022/11/12 04:11:31;;;;;;;42.60;24.37;;;4.80;99.90;;;;;;5022630;28;20241;-71
2022/11/12 04:13:59;;;;;;;36.83;22.63;;;4.80;99.90;;;;;;5004643;28;20472;-72
2022/11/12 04:21:59;;;;;;;33.90;19.83;;;4.80;99.90;;;;;;5005716;28;20317;-72
2022/11/12 04:27:32;;;;;;;37.23;22.07;;;4.70;99.90;;;;;;5021762;28;20288;-71
2022/11/12 04:30:15;;;;;;;36.63;20.87;;;4.70;99.90;;;;;;5022967;28;20197;-71
2022/11/12 04:32:53;;;;;;;36.43;21.07;;;4.60;99.90;;;;;;5018197;28;20210;-71
2022/11/12 04:35:22;;;;;;;31.77;20.70;;;4.60;99.90;;;;;;5022839;28;20198;-69
2022/11/12 04:37:49;;;;;;;37.87;21.33;;;4.60;99.90;;;;;;5019155;28;20329;-72
2022/11/12 04:45:52;;;;;;;33.57;20.23;;;4.50;99.90;;;;;;5019043;28;20251;-72
2022/11/12 04:48:20;;;;;;;39.07;21.70;;;4.50;99.90;;;;;;5023439;28;20213;-71
2022/11/12 04:50:52;;;;;;;36.20;22.40;;;4.50;99.90;;;;;;5019213;28;20233;-71
2022/11/12 04:53:19;;;;;;;40.50;21.23;;;4.50;99.90;;;;;;5023144;28;20611;-70
2022/11/12 04:55:53;;;;;;;34.73;21.03;;;4.50;99.90;;;;;;5019187;28;20213;-71
2022/11/12 04:58:20;;;;;;;39.53;21.90;;;4.40;99.90;;;;;;5017422;28;20776;-70
2022/11/12 05:00:48;;;;;;;35.60;21.30;;;4.40;99.90;;;;;;5018387;28;20201;-71
2022/11/12 05:03:16;;;;;;;41.10;22.70;;;4.40;99.90;;;;;;5004318;28;20259;-72
2022/11/12 05:05:43;;;;;;;32.47;20.77;;;4.40;99.90;;;;;;5007449;28;20214;-71
2022/11/12 05:08:10;;;;;;;32.23;21.30;;;4.40;99.90;;;;;;5021163;28;20292;-72
2022/11/12 05:10:36;;;;;;;39.60;23.37;;;4.40;99.90;;;;;;5019152;28;20217;-71
2022/11/12 05:13:03;;;;;;;32.07;20.50;;;4.40;99.90;;;;;;5020425;28;20274;-72
2022/11/12 05:15:30;;;;;;;36.43;21.00;;;4.40;99.90;;;;;;5019460;28;20494;-71
2022/11/12 05:17:57;;;;;;;40.53;24.00;;;4.40;99.90;;;;;;5021282;28;20352;-70
2022/11/12 05:20:23;;;;;;;33.07;22.50;;;4.30;99.90;;;;;;5005426;28;20204;-71
2022/11/12 05:22:50;;;;;;;36.07;21.63;;;4.30;99.90;;;;;;5018902;28;20503;-71
2022/11/12 05:25:33;;;;;;;32.70;21.33;;;4.30;99.90;;;;;;5005558;28;20225;-71
2022/11/12 05:27:59;;;;;;;31.70;20.07;;;4.30;99.90;;;;;;5021189;28;20197;-71
2022/11/12 05:30:26;;;;;;;33.03;20.60;;;4.30;99.90;;;;;;5023246;28;20574;-71
2022/11/12 05:32:53;;;;;;;28.97;17.83;;;4.30;99.90;;;;;;5020241;28;20612;-70
2022/11/12 05:35:19;;;;;;;29.60;18.90;;;4.30;99.90;;;;;;5018824;28;20276;-71
2022/11/12 05:37:46;;;;;;;32.73;19.20;;;4.20;99.90;;;;;;5021312;28;20240;-72
2022/11/12 05:40:13;;;;;;;31.30;19.20;;;4.20;99.90;;;;;;5000238;28;20210;-71
2022/11/12 05:42:40;;;;;;;26.37;18.40;;;4.20;99.90;;;;;;5002364;28;20204;-71
2022/11/12 05:45:07;;;;;;;30.33;19.10;;;4.10;99.90;;;;;;5008752;28;20216;-70
2022/11/12 05:47:34;;;;;;;31.17;18.73;;;4.10;99.90;;;;;;5023535;28;20295;-71
2022/11/12 05:50:01;;;;;;;34.83;20.30;;;4.10;99.90;;;;;;5023908;28;20198;-72
2022/11/12 05:52:27;;;;;;;31.43;19.93;;;4.10;99.90;;;;;;5008146;28;20331;-70
2022/11/12 05:54:54;;;;;;;33.20;20.50;;;4.10;99.90;;;;;;5023992;28;20260;-70
2022/11/12 05:57:21;;;;;;;44.83;22.40;;;4.10;99.90;;;;;;5014625;28;20259;-71
2022/11/12 05:59:48;;;;;;;48.57;25.43;;;4.00;99.90;;;;;;5022304;28;20210;-70
2022/11/12 06:02:14;;;;;;;32.40;21.43;;;4.10;99.90;;;;;;5021488;28;20209;-70
2022/11/12 06:04:41;;;;;;;34.47;21.07;;;4.00;99.90;;;;;;5022752;28;20347;-70
2022/11/12 06:07:08;;;;;;;32.70;21.00;;;4.00;99.90;;;;;;5022699;28;20337;-71
2022/11/12 06:09:35;;;;;;;31.10;21.00;;;4.00;99.90;;;;;;5022275;28;20203;-72
2022/11/12 06:12:05;;;;;;;35.70;21.30;;;4.00;99.90;;;;;;5029890;28;20309;-71
2022/11/12 06:14:31;;;;;;;32.27;20.33;;;4.00;99.90;;;;;;5014544;28;20238;-71
2022/11/12 06:16:58;;;;;;;45.03;23.57;;;4.00;99.90;;;;;;5029637;28;20234;-71
2022/11/12 06:19:25;;;;;;;43.43;24.07;;;3.90;99.90;;;;;;5028510;28;20750;-70
2022/11/12 06:21:51;;;;;;;39.17;22.00;;;3.90;99.90;;;;;;5027100;28;20737;-71
2022/11/12 06:24:19;;;;;;;36.83;21.53;;;3.90;99.90;;;;;;5031142;28;20596;-71
2022/11/12 06:26:45;;;;;;;34.40;20.37;;;3.90;99.90;;;;;;5029839;28;20209;-70
2022/11/12 06:29:12;;;;;;;31.03;19.80;;;3.90;99.90;;;;;;5027885;28;20849;-71
2022/11/12 06:31:39;;;;;;;29.97;18.70;;;3.90;99.90;;;;;;5030494;28;20288;-72
2022/11/12 06:34:05;;;;;;;32.77;21.17;;;3.90;99.90;;;;;;5029971;28;20632;-71
2022/11/12 06:36:33;;;;;;;29.73;18.23;;;3.90;99.90;;;;;;5022555;28;20799;-71
2022/11/12 06:39:00;;;;;;;29.90;17.87;;;3.90;99.90;;;;;;5026801;28;20570;-70
2022/11/12 06:41:27;;;;;;;27.70;18.33;;;3.80;99.90;;;;;;5027528;28;20220;-71
2022/11/12 06:43:53;;;;;;;31.07;18.37;;;3.80;99.90;;;;;;5011883;28;20207;-72
2022/11/12 06:46:20;;;;;;;30.00;19.23;;;3.80;99.90;;;;;;5026287;28;20593;-70
2022/11/12 06:48:47;;;;;;;25.13;17.67;;;3.80;99.90;;;;;;5025578;28;20200;-71
2022/11/12 06:51:18;;;;;;;30.40;18.23;;;3.80;99.90;;;;;;5026187;28;20320;-71
2022/11/12 06:53:45;;;;;;;31.47;19.33;;;3.70;99.90;;;;;;5025469;28;20462;-68
2022/11/12 06:56:13;;;;;;;31.07;20.73;;;3.70;99.90;;;;;;5024698;28;20643;-71
2022/11/12 06:58:40;;;;;;;34.70;20.07;;;3.70;99.90;;;;;;5020950;28;20244;-70
2022/11/12 07:01:10;;;;;;;31.93;20.67;;;3.70;99.90;;;;;;5023552;28;20722;-71
2022/11/12 07:03:40;;;;;;;32.17;21.30;;;3.70;99.90;;;;;;5008497;28;20640;-70
2022/11/12 07:06:17;;;;;;;31.83;20.50;;;3.70;99.90;;;;;;5022927;28;20281;-70
2022/11/12 07:08:44;;;;;;;33.90;20.60;;;3.70;99.90;;;;;;5025735;28;20208;-70
2022/11/12 07:11:11;;;;;;;30.07;19.17;;;3.70;99.90;;;;;;5027469;28;20361;-69
2022/11/12 07:13:38;;;;;;;31.67;20.50;;;3.70;99.90;;;;;;5010183;28;20295;-69
2022/11/12 07:16:06;;;;;;;30.67;20.80;;;3.70;99.90;;;;;;5012058;28;20211;-71
2022/11/12 07:18:34;;;;;;;29.80;19.67;;;3.70;99.90;;;;;;5030695;28;20232;-70
2022/11/12 07:21:12;;;;;;;33.93;21.20;;;3.70;99.90;;;;;;5029158;28;20223;-71
2022/11/12 07:23:39;;;;;;;36.27;21.53;;;3.70;99.90;;;;;;5023685;28;20305;-70
2022/11/12 07:26:11;;;;;;;33.67;20.83;;;3.70;99.90;;;;;;5021823;28;20209;-71
2022/11/12 07:28:38;;;;;;;39.07;21.90;;;3.70;99.90;;;;;;5020115;28;20200;-70
2022/11/12 07:31:09;;;;;;;32.70;19.23;;;3.70;99.90;;;;;;5014301;28;20303;-71
2022/11/12 07:33:36;;;;;;;32.43;20.00;;;3.70;99.90;;;;;;5023825;28;20262;-70
2022/11/12 07:36:04;;;;;;;36.27;21.43;;;3.80;99.90;;;;;;5023811;28;20640;-70
2022/11/12 07:38:33;;;;;;;35.43;21.20;;;3.80;99.90;;;;;;5022989;28;20308;-71
2022/11/12 07:41:11;;;;;;;32.90;19.27;;;3.80;99.90;;;;;;5023209;28;20208;-71
2022/11/12 07:43:39;;;;;;;28.83;18.43;;;3.80;99.90;;;;;;5024009;28;20208;-70
2022/11/12 07:46:08;;;;;;;34.57;21.67;;;3.80;99.90;;;;;;5020735;28;20213;-70
2022/11/12 07:48:37;;;;;;;36.00;22.03;;;3.80;99.90;;;;;;5019588;28;20713;-70
2022/11/12 07:51:15;;;;;;;32.93;21.10;;;3.90;99.90;;;;;;5023948;28;20516;-70
2022/11/12 07:53:46;;;;;;;34.63;21.53;;;3.90;99.90;;;;;;5024560;28;20219;-71
2022/11/12 07:56:16;;;;;;;33.63;21.37;;;3.90;99.90;;;;;;5022753;28;20212;-69
2022/11/12 07:58:44;;;;;;;33.37;22.17;;;3.90;99.90;;;;;;5019694;28;20244;-70
2022/11/12 08:01:51;;;;;;;34.57;22.83;;;4.00;99.90;;;;;;5019901;28;20583;-71
2022/11/12 08:04:18;;;;;;;34.80;23.60;;;4.10;99.90;;;;;;5020149;28;20578;-70
2022/11/12 08:06:45;;;;;;;36.30;23.83;;;4.10;99.90;;;;;;5023618;28;20350;-69
2022/11/12 08:09:12;;;;;;;34.00;22.43;;;4.10;99.90;;;;;;5019596;28;20221;-70
2022/11/12 08:11:40;;;;;;;34.67;23.27;;;4.20;99.90;;;;;;5019541;28;20244;-70
2022/11/12 08:14:07;;;;;;;37.17;24.60;;;4.20;99.90;;;;;;5022552;28;20207;-70
2022/11/12 08:16:34;;;;;;;31.43;21.83;;;4.30;99.90;;;;;;5023002;28;20217;-71
2022/11/12 08:19:01;;;;;;;31.23;22.30;;;4.30;99.90;;;;;;5021382;28;20210;-70
2022/11/12 08:21:28;;;;;;;39.70;24.67;;;4.30;99.90;;;;;;5021060;28;20262;-70
2022/11/12 08:23:55;;;;;;;33.77;25.17;;;4.30;99.90;;;;;;5022679;28;20611;-70
2022/11/12 08:26:22;;;;;;;38.43;24.90;;;4.40;99.90;;;;;;5018986;28;20241;-71
2022/11/12 08:28:49;;;;;;;34.10;22.77;;;4.50;99.90;;;;;;5020372;28;20223;-70
2022/11/12 08:31:18;;;;;;;38.47;24.83;;;4.50;99.90;;;;;;5024471;28;20246;-70
2022/11/12 08:33:45;;;;;;;32.70;23.27;;;4.60;99.90;;;;;;5020320;28;20252;-70
2022/11/12 08:36:13;;;;;;;32.33;23.83;;;4.60;99.90;;;;;;5020976;28;20401;-69
2022/11/12 08:38:41;;;;;;;37.53;25.00;;;;;;;;;;5019740;28;20685;-70
2022/11/12 08:41:10;;;;;;;38.23;24.87;;;4.80;99.90;;;;;;5020973;28;20335;-70
2022/11/12 08:43:39;;;;;;;35.93;24.47;;;4.80;99.90;;;;;;5022274;28;20205;-71
2022/11/12 08:46:05;;;;;;;36.63;23.40;;;4.90;99.90;;;;;;5021569;28;20204;-70
2022/11/12 08:48:33;;;;;;;37.13;24.70;;;4.90;99.90;;;;;;5005822;28;20233;-70
2022/11/12 08:51:02;;;;;;;46.10;27.77;;;5.00;99.90;;;;;;5020726;28;20213;-70
2022/11/12 08:53:29;;;;;;;38.17;26.70;;;5.10;99.90;;;;;;5020871;28;20313;-71
2022/11/12 08:55:57;;;;;;;40.00;24.80;;;5.10;99.90;;;;;;5025704;28;20596;-70
2022/11/12 08:58:24;;;;;;;35.83;23.73;;;5.20;99.90;;;;;;5017565;28;20778;-70
2022/11/12 09:00:52;;;;;;;46.40;30.03;;;5.30;99.90;;;;;;5022547;28;20267;-70
2022/11/12 09:03:22;;;;;;;58.60;33.53;;;5.30;99.90;;;;;;5018479;28;20636;-71
2022/11/12 09:05:49;;;;;;;59.10;34.93;;;5.40;99.90;;;;;;5004810;28;20305;-71
2022/11/12 09:08:20;;;;;;;68.53;36.00;;;5.50;99.90;;;;;;5020063;28;20743;-71
2022/11/12 09:10:48;;;;;;;68.67;37.50;;;5.60;99.90;;;;;;5018834;28;20225;-71
2022/11/12 09:13:17;;;;;;;66.93;39.73;;;5.70;99.90;;;;;;5016215;28;20211;-70
2022/11/12 09:15:44;;;;;;;69.83;39.93;;;5.90;99.90;;;;;;5019823;28;20290;-70
2022/11/12 09:18:15;;;;;;;75.47;43.23;;;6.00;99.90;;;;;;5018467;28;20237;-70
2022/11/12 09:20:42;;;;;;;72.30;41.13;;;6.10;99.90;;;;;;5021058;28;20206;-71
2022/11/12 09:23:14;;;;;;;72.33;42.47;;;6.20;99.90;;;;;;5011309;28;20204;-68
2022/11/12 09:25:41;;;;;;;74.70;43.20;;;6.60;99.90;;;;;;5026907;28;20203;-71
2022/11/12 09:28:14;;;;;;;80.80;44.77;;;6.50;99.90;;;;;;5024979;28;20505;-71
2022/11/12 09:30:45;;;;;;;71.47;43.60;;;6.60;99.90;;;;;;5013892;28;20308;-70
2022/11/12 09:33:17;;;;;;;66.90;43.30;;;6.70;99.90;;;;;;5009873;28;20218;-71
2022/11/12 09:35:45;;;;;;;73.43;41.93;;;6.80;99.90;;;;;;5021837;28;20213;-71
2022/11/12 09:38:14;;;;;;;64.50;40.33;;;7.00;99.90;;;;;;5022013;28;20238;-70
2022/11/12 09:40:50;;;;;;;60.97;38.40;;;7.10;99.90;;;;;;5011188;28;20221;-70
2022/11/12 09:43:35;;;;;;;63.67;40.70;;;7.20;99.90;;;;;;5007408;28;20214;-70
2022/11/12 09:46:19;;;;;;;65.67;38.77;;;7.20;99.90;;;;;;5006919;28;20753;-70
2022/11/12 09:49:20;;;;;;;68.13;40.47;;;7.30;99.90;;;;;;5022718;28;20218;-71
2022/11/12 09:51:52;;;;;;;63.17;38.30;;;7.40;99.90;;;;;;5020860;28;20232;-70
2022/11/12 09:54:26;;;;;;;57.30;34.80;;;7.50;99.90;;;;;;5020368;28;20239;-70
2022/11/12 09:56:54;;;;;;;54.43;34.97;;;7.60;99.90;;;;;;5024688;28;20244;-73
2022/11/12 09:59:23;;;;;;;50.83;30.57;;;7.60;99.90;;;;;;5020945;28;20624;-71
2022/11/12 10:01:59;;;;;;;43.57;28.40;;;7.90;99.90;;;;;;5023863;28;20300;-71
2022/11/12 10:04:52;;;;;;;48.13;27.07;;;7.80;99.90;;;;;;5019959;28;20213;-71
2022/11/12 10:07:36;;;;;;;42.83;28.53;;;7.90;99.90;;;;;;5006328;28;20221;-71
2022/11/12 10:10:13;;;;;;;41.13;27.23;;;7.90;99.90;;;;;;5024004;28;20203;-70
2022/11/12 10:13:16;;;;;;;37.93;25.83;;;8.00;99.90;;;;;;5021899;28;20201;-71
2022/11/12 10:19:21;;;;;;;37.37;25.73;;;8.10;99.90;;;;;;5019861;28;20621;-71
2022/11/12 10:22:01;;;;;;;38.90;25.13;;;8.20;99.90;;;;;;5021703;28;20534;-71
2022/11/12 10:24:35;;;;;;;40.53;26.27;;;8.20;99.90;;;;;;5023693;28;20221;-70
2022/11/12 10:27:26;;;;;;;39.57;25.87;;;8.30;99.90;;;;;;5020823;28;20292;-71
2022/11/12 10:30:02;;;;;;;37.77;26.00;;;8.80;99.90;;;;;;5023612;28;20662;-71
2022/11/12 10:32:29;;;;;;;34.33;24.83;;;8.50;99.90;;;;;;5022379;28;20232;-72
2022/11/12 10:34:56;;;;;;;36.87;24.30;;;;;;;;;;5024144;28;20233;-71
2022/11/12 10:37:32;;;;;;;35.53;22.13;;;8.70;99.90;;;;;;5020399;28;20234;-71
2022/11/12 10:40:19;;;;;;;33.03;23.07;;;8.80;99.90;;;;;;5023718;28;20250;-71
2022/11/12 10:43:15;;;;;;;35.37;22.57;;;8.80;99.90;;;;;;5021503;28;20566;-71
2022/11/12 10:45:46;;;;;;;29.73;21.80;;;9.00;99.90;;;;;;5018874;28;20296;-70
2022/11/12 10:48:29;;;;;;;30.40;20.60;;;9.10;99.90;;;;;;5021630;28;20640;-70
2022/11/12 10:50:57;;;;;;;31.43;20.33;;;9.20;99.90;;;;;;5024112;28;20542;-70
2022/11/12 10:53:34;;;;;;;26.80;18.23;;;9.30;99.90;;;;;;5020624;28;20213;-70
2022/11/12 10:56:21;;;;;;;29.03;20.00;;;9.30;99.90;;;;;;5023721;28;20340;-70
2022/11/12 10:59:25;;;;;;;26.43;18.93;;;9.30;99.90;;;;;;5019244;28;20242;-70
2022/11/12 11:02:18;;;;;;;26.77;18.90;;;9.40;99.90;;;;;;5019789;28;20217;-69
2022/11/12 11:04:45;;;;;;;25.07;18.53;;;9.50;99.90;;;;;;5020446;28;20320;-71
2022/11/12 11:07:42;;;;;;;25.03;17.47;;;9.70;99.90;;;;;;5023499;28;20518;-72
2022/11/12 11:10:28;;;;;;;24.40;18.40;;;9.60;99.90;;;;;;5013759;28;20222;-71
2022/11/12 11:13:18;;;;;;;23.07;17.80;;;9.80;99.90;;;;;;5022917;28;20778;-70
2022/11/12 11:16:29;;;;;;;25.57;18.57;;;9.80;99.90;;;;;;5006195;28;20224;-71
2022/11/12 11:18:59;;;;;;;24.40;17.10;;;10.00;99.90;;;;;;4992857;28;20316;-72
2022/11/12 11:21:48;;;;;;;24.87;17.60;;;10.00;99.90;;;;;;5021969;28;20233;-71
2022/11/12 11:24:18;;;;;;;23.63;17.03;;;10.10;99.90;;;;;;5008563;28;20340;-71
2022/11/12 11:26:57;;;;;;;21.10;16.23;;;10.20;99.90;;;;;;5006944;28;20289;-71
2022/11/12 11:30:10;;;;;;;23.00;17.10;;;10.60;99.90;;;;;;5025022;28;20498;-69
2022/11/12 11:32:52;;;;;;;26.00;16.83;;;10.40;99.90;;;;;;4994761;28;20213;-71
2022/11/12 11:35:40;;;;;;;21.57;16.63;;;10.40;99.90;;;;;;5003549;28;20206;-71
2022/11/12 11:38:20;;;;;;;21.27;15.67;;;10.50;99.90;;;;;;5021330;28;20281;-70
2022/11/12 11:41:07;;;;;;;23.77;16.43;;;10.50;99.90;;;;;;5022122;28;20227;-70
2022/11/12 11:43:42;;;;;;;24.87;15.90;;;;;;;;;;5030436;28;20569;-71
2022/11/12 11:46:22;;;;;;;23.27;16.97;;;10.60;99.90;;;;;;5023043;28;20201;-70
2022/11/12 11:49:29;;;;;;;21.23;15.93;;;10.70;99.90;;;;;;5007688;28;20216;-70
2022/11/12 11:52:14;;;;;;;21.87;15.33;;;10.80;99.90;;;;;;5023250;28;20736;-70
2022/11/12 11:54:50;;;;;;;20.20;14.90;;;10.80;99.90;;;;;;5024726;28;20197;-72
2022/11/12 11:57:50;;;;;;;19.37;14.17;;;11.00;99.90;;;;;;5024312;28;20668;-70
2022/11/12 12:00:22;;;;;;;18.73;14.13;;;11.10;99.90;;;;;;5024273;28;20202;-69
2022/11/12 12:03:11;;;;;;;21.77;14.30;;;11.10;99.90;;;;;;5024415;28;20589;-70
2022/11/12 12:06:04;;;;;;;18.97;13.77;;;11.20;99.90;;;;;;5027508;28;20210;-70
2022/11/12 12:08:55;;;;;;;20.23;14.40;;;11.30;99.90;;;;;;5021814;28;20210;-69
2022/11/12 12:11:40;;;;;;;19.37;15.73;;;11.40;99.90;;;;;;5022559;28;20227;-69
2022/11/12 12:14:52;;;;;;;20.97;16.17;;;11.40;99.90;;;;;;5006231;28;20201;-71
2022/11/12 12:17:37;;;;;;;22.40;17.40;;;11.50;99.90;;;;;;5022013;28;20210;-70
2022/11/12 12:20:43;;;;;;;23.30;16.33;;;11.50;99.90;;;;;;5029275;28;20354;-70
2022/11/12 12:23:18;;;;;;;19.80;16.47;;;11.60;99.90;;;;;;5027820;28;20198;-70
2022/11/12 12:25:48;;;;;;;25.87;17.70;;;11.60;99.90;;;;;;5023288;28;20241;-71
2022/11/12 12:28:33;;;;;;;22.63;17.63;;;11.70;99.90;;;;;;5016717;28;20760;-69
2022/11/12 12:31:05;;;;;;;22.27;16.53;;;11.80;99.90;;;;;;5018621;28;20206;-70
2022/11/12 12:33:36;;;;;;;22.93;16.77;;;11.90;99.90;;;;;;5021887;28;20276;-69
2022/11/12 12:36:10;;;;;;;23.80;16.53;;;11.90;99.90;;;;;;5008700;28;20221;-71
2022/11/12 12:38:47;;;;;;;20.87;16.40;;;12.10;99.90;;;;;;5022497;28;20284;-69
2022/11/12 12:41:36;;;;;;;22.67;16.27;;;12.10;99.90;;;;;;5005692;28;20318;-70
2022/11/12 12:44:05;;;;;;;23.67;15.83;;;12.10;99.90;;;;;;5020884;28;20688;-70
2022/11/12 12:46:45;;;;;;;21.33;16.23;;;12.10;99.90;;;;;;5006735;28;20565;-70
2022/11/12 12:49:22;;;;;;;20.87;15.40;;;12.30;99.90;;;;;;5023347;28;20539;-71
2022/11/12 12:51:49;;;;;;;18.77;15.47;;;12.30;99.90;;;;;;5020352;28;20259;-70
2022/11/12 12:54:33;;;;;;;20.83;15.70;;;12.40;99.90;;;;;;5019732;28;20210;-70
2022/11/12 12:57:02;;;;;;;19.10;14.53;;;12.40;99.90;;;;;;5023698;28;20216;-71
2022/11/12 12:59:29;;;;;;;18.70;13.97;;;12.50;99.90;;;;;;5025097;28;20777;-70
2022/11/12 13:02:01;;;;;;;16.60;13.30;;;12.60;99.90;;;;;;5022335;28;20246;-71
2022/11/12 13:04:51;;;;;;;17.53;13.40;;;12.60;99.90;;;;;;5025024;28;20209;-70
2022/11/12 13:07:46;;;;;;;17.83;13.30;;;12.70;99.90;;;;;;5023438;28;20678;-69
2022/11/12 13:10:37;;;;;;;15.27;12.50;;;12.70;99.90;;;;;;5022408;28;20676;-71
2022/11/12 13:13:25;;;;;;;19.17;12.13;;;12.80;99.90;;;;;;5025421;28;20217;-72
2022/11/12 13:15:59;;;;;;;16.50;12.47;;;12.90;99.90;;;;;;5024115;28;20655;-71
2022/11/12 13:18:49;;;;;;;19.20;12.27;;;12.90;99.90;;;;;;5025853;28;20329;-71
2022/11/12 13:21:18;;;;;;;16.40;13.00;;;13.00;99.90;;;;;;5003222;28;20246;-70
2022/11/12 13:24:09;;;;;;;16.53;12.47;;;13.00;99.90;;;;;;5024066;28;20272;-70